Aérodrome :
LOGIN :

S'inscrire | Disclaimer

   EN    FR    IT 

 










Légende :    VFR   VFR Marginal   IFR   IFR Intensif   IFR Très Intensif
Visi : 
Plafond : 
>= 8 km
>= 3000ft
5 à 8 km
1000 à 3000 ft
1500m à 5 km
500 à 1000 ft
800 à 1500m
200 à 500 ft
< 800m
< 200 ft
Symboles :   Orages  Brouillard  Fortes neiges  Fortes précipitations  Vent > 20 kt
SIGMETs :   Divers  Orages  Givrage  Turbulence  Onde Orograph.  Cendres Volcan.







- Altitude de l'aérodrome : 24 ft
- Code IATA : FAO


LPFR - Faro

DERNIER METAR :
  • 171900Z 00000KT CAVOK 13/12 Q1022

METARs EXPIRÉS :
  • 171830Z 20002KT CAVOK 14/12 Q1022
  • 171800Z 20003KT 180V240 CAVOK 14/11 Q1022
  • 171730Z 22005KT 9999 FEW030 14/11 Q1022
  • 171700Z 21006KT 9999 FEW030 14/11 Q1022
  • 171630Z 21006KT 9999 FEW030 15/11 Q1022

TAF TAF LPFR
Valide du 17 à 18h jusqu'au 18 à 18h UTC


171700Z 1718/1818 21007KT CAVOK
BECMG 1718/1720 35007KT
BECMG 1802/1804 03005KT
BECMG 1810/1812 10010KT
BECMG 1816/1818 26005KT
Pas de NOTAMs connus pour ce terrain.



MET'MAP, la Météo Aéronautique d'un coup d'oeil ! - Copyright ORBIFLY Décembre 2007 - Disclaimer

ORBIFLY MET'MAP TEAM :

Programmation & Développement : Alexandra Zaïnal
Conception & Développement : Baudouin d'Aumeries
Co-Programmation & Développement : Marc-Olivier Méhu
Soutien technique & logistique : Manuel Goepfert

Contact : metmap@orbifly.com




SOURCES & CREDITS :

   NOAA